首页
METAR-TAF:

METAR-TAF

机场 :

德雷达瓦, 埃塞俄比亚

纬度: 09-36N, 经度: 041-52E, 海拔: 1146米

METAR: 丢失

时间: 13:10 (10:10 UTC)

预报

该预报发布于6小时和40分钟前的03:30 UTC
预报有效从09日的 06点(UTC)到 10日的 12点(UTC)
风速8节,风向
能见度10公里或以上
少量云层高于2500英尺
散云层高于8000英尺
成为
从 09日的 13点(UTC)到 09日的 17点(UTC)
多云层高于4000英尺

TAF: HADR 090330Z 0906/1012 18008KT 9999 FEW025 SCT080 BECMG 0913/0917 BKN040

超过4000个机场的气象观测和天气预报(METAR&TAF报告)。

可查询的气象台以黄色和红色小点在地图上表示。

将鼠标移到小点上方,可查看气象台名称。

然后点击查看天气观测和预报。

如需切换地图:点击带黑十字的绿色按钮放大地图;点击带横线的绿色按钮缩小地图;或者点击绿色箭头查看邻近地区的地图。


METAR-TAF: